首页
METAR-TAF:

METAR-TAF

机场 :

科尔多瓦, 阿根廷

纬度: 31-19S, 经度: 064-13W, 海拔: 484米

当前天气观测

该预报发布于17分钟前的18:00 UTC
风速15节,风向东北
温度 19°C
湿度 24%
气压 1023 hPa
能见度10公里或以上
1500米以下无云,无积雨云

METAR: SACO 151800Z 05015KT CAVOK 19/M02 Q1023 NOSIG

时间: 15:17 (18:17 UTC)

预报

该预报发布于1小时和17分钟前的17:00 UTC
预报有效从15日的 18点(UTC)到 16日的 18点(UTC)
风速15节,风向东北
能见度10公里或以上
1500米以下无云,无积雨云
成为
从 16日的 00点(UTC)到 16日的 03点(UTC)
风速10节,风向
成为
从 16日的 12点(UTC)到 16日的 14点(UTC)
风速15节,风向北转东北

TAF: SACO 151700Z 1518/1618 05015KT CAVOK TX20/1518Z TN03/1610Z BECMG 1600/1603 36010KT BECMG 1612/1614 02015KT

超过4000个机场的气象观测和天气预报(METAR&TAF报告)。

可查询的气象台以黄色和红色小点在地图上表示。

将鼠标移到小点上方,可查看气象台名称。

然后点击查看天气观测和预报。

如需切换地图:点击带黑十字的绿色按钮放大地图;点击带横线的绿色按钮缩小地图;或者点击绿色箭头查看邻近地区的地图。


METAR-TAF: